Time;durP1;ratioP1;P1;durP2;ratioP2;P2;SDS_P1;SDS_P2;PMS_P1;PMS_P2;Temp;Humidity;BMP_temperature;BMP_pressure;BME280_temperature;BME280_humidity;BME280_pressure;Samples;Min_cycle;Max_cycle;Signal;HPM_P1;HPM_P2
2023/09/14 00:01:32;;;;;;;21.90;16.58;;;;;;;;;;6269961;28;20058;-79
2023/09/14 00:04:34;;;;;;;20.92;15.10;;;;;;;;;;6268192;28;20745;-79
2023/09/14 00:07:38;;;;;;;18.73;14.98;;;;;;;;;;6263367;28;20053;-79
2023/09/14 00:10:41;;;;;;;19.02;15.25;;;;;;;;;;6267807;28;20456;-79
2023/09/14 00:13:42;;;;;;;19.92;15.30;;;;;;;;;;6266448;28;20053;-79
2023/09/14 00:16:46;;;;;;;19.92;15.00;;;;;;;;;;6269120;28;20056;-79
2023/09/14 00:19:48;;;;;;;22.77;14.65;;;;;;;;;;6268814;28;20057;-79
2023/09/14 00:22:50;;;;;;;21.05;15.18;;;;;;;;;;6268628;28;20487;-79
2023/09/14 00:25:53;;;;;;;21.25;15.82;;;;;;;;;;6269183;28;20049;-79
2023/09/14 00:28:54;;;;;;;19.08;14.32;;;;;;;;;;6268591;28;20117;-79
2023/09/14 00:31:58;;;;;;;21.73;14.75;;;;;;;;;;6267833;28;20448;-79
2023/09/14 00:35:00;;;;;;;17.88;13.95;;;;;;;;;;6265701;28;20129;-79
2023/09/14 00:38:02;;;;;;;20.48;15.43;;;;;;;;;;6270118;28;20072;-79
2023/09/14 00:41:03;;;;;;;20.77;14.73;;;;;;;;;;6266266;28;20059;-78
2023/09/14 00:44:05;;;;;;;22.15;16.02;;;;;;;;;;6270256;28;20059;-79
2023/09/14 00:47:09;;;;;;;18.48;14.75;;;;;;;;;;6264897;28;20091;-79
2023/09/14 00:50:15;;;;;;;18.27;14.38;;;;;;;;;;6270746;28;20052;-79
2023/09/14 00:53:17;;;;;;;20.98;14.75;;;;;;;;;;6267049;28;20059;-79
2023/09/14 00:56:19;;;;;;;20.05;15.45;;;;;;;;;;6268741;28;20112;-79
2023/09/14 00:59:21;;;;;;;19.10;15.00;;;;;;;;;;6266859;28;20333;-79
2023/09/14 01:02:25;;;;;;;19.10;14.35;;;;;;;;;;6265778;28;20245;-78
2023/09/14 01:05:30;;;;;;;20.63;16.45;;;;;;;;;;6266176;28;20064;-79
2023/09/14 01:08:32;;;;;;;26.27;18.38;;;;;;;;;;6267473;28;20052;-79
2023/09/14 01:11:33;;;;;;;22.45;16.63;;;;;;;;;;6265044;28;20045;-79
2023/09/14 01:14:41;;;;;;;24.40;16.98;;;;;;;;;;6265315;28;20061;-79
2023/09/14 01:18:00;;;;;;;20.85;15.55;;;;;;;;;;6265985;28;20104;-78
2023/09/14 01:21:30;;;;;;;18.98;15.18;;;;;;;;;;6265320;28;20052;-79
2023/09/14 01:24:40;;;;;;;20.17;15.52;;;;;;;;;;6267008;28;20901;-78
2023/09/14 01:27:44;;;;;;;20.10;16.10;;;;;;;;;;6261422;28;20041;-78
2023/09/14 01:30:47;;;;;;;20.63;16.40;;;;;;;;;;6243855;28;20388;-78
2023/09/14 01:33:49;;;;;;;18.63;14.73;;;;;;;;;;6246528;28;20049;-78
2023/09/14 01:36:54;;;;;;;19.65;14.88;;;;;;;;;;6249135;28;20456;-79
2023/09/14 01:39:58;;;;;;;19.50;14.05;;;;;;;;;;6245019;28;20061;-79
2023/09/14 01:43:02;;;;;;;19.70;13.30;;;;;;;;;;6244779;28;20072;-78
2023/09/14 01:46:05;;;;;;;18.00;14.35;;;;;;;;;;6242194;28;20273;-79
2023/09/14 01:49:07;;;;;;;18.85;13.52;;;;;;;;;;6246756;28;20054;-78
2023/09/14 01:52:09;;;;;;;18.85;14.23;;;;;;;;;;6247031;28;20121;-78
2023/09/14 01:55:12;;;;;;;18.00;14.52;;;;;;;;;;6243235;28;20325;-78
2023/09/14 01:58:15;;;;;;;18.98;14.85;;;;;;;;;;6244685;28;20084;-79
2023/09/14 02:01:17;;;;;;;20.52;15.00;;;;;;;;;;6246265;28;20053;-79
2023/09/14 02:04:24;;;;;;;21.13;15.25;;;;;;;;;;6243570;28;20041;-79
2023/09/14 02:07:26;;;;;;;23.33;16.77;;;;;;;;;;6245684;28;20053;-78
2023/09/14 02:10:28;;;;;;;20.85;15.52;;;;;;;;;;6244490;28;20061;-79
2023/09/14 02:13:31;;;;;;;19.05;14.88;;;;;;;;;;6243990;28;20042;-79
2023/09/14 02:16:33;;;;;;;20.73;15.73;;;;;;;;;;6243790;28;20121;-79
2023/09/14 02:19:35;;;;;;;22.33;16.70;;;;;;;;;;6248295;28;20436;-79
2023/09/14 02:22:39;;;;;;;25.50;16.38;;;;;;;;;;6246921;28;20395;-78
2023/09/14 02:25:43;;;;;;;19.92;16.65;;;;;;;;;;6249444;28;20065;-78
2023/09/14 02:28:46;;;;;;;24.10;16.80;;;;;;;;;;6249294;28;20271;-78
2023/09/14 02:31:48;;;;;;;19.92;15.15;;;;;;;;;;6247834;28;20104;-79
2023/09/14 02:34:49;;;;;;;20.33;15.57;;;;;;;;;;6248511;28;20042;-79
2023/09/14 02:37:51;;;;;;;19.80;15.98;;;;;;;;;;6249554;28;20058;-78
2023/09/14 02:40:54;;;;;;;27.27;15.90;;;;;;;;;;6247782;28;20064;-79
2023/09/14 02:43:57;;;;;;;23.48;15.70;;;;;;;;;;6248986;28;20117;-79
2023/09/14 02:46:59;;;;;;;22.27;15.93;;;;;;;;;;6246439;28;20733;-79
2023/09/14 02:50:01;;;;;;;20.33;14.95;;;;;;;;;;6251319;28;20057;-79
2023/09/14 02:53:03;;;;;;;20.05;14.95;;;;;;;;;;6248534;28;20053;-78
2023/09/14 02:56:09;;;;;;;19.02;14.85;;;;;;;;;;6250202;28;20058;-79
2023/09/14 02:59:15;;;;;;;22.73;14.82;;;;;;;;;;6246108;28;20041;-78
2023/09/14 03:02:16;;;;;;;20.45;14.55;;;;;;;;;;6247138;28;20218;-79
2023/09/14 03:05:19;;;;;;;19.17;14.20;;;;;;;;;;6249286;28;20053;-78
2023/09/14 03:08:22;;;;;;;18.20;14.77;;;;;;;;;;6250442;28;20092;-78
2023/09/14 03:11:24;;;;;;;20.98;14.85;;;;;;;;;;6248952;28;20054;-79
2023/09/14 03:14:28;;;;;;;19.20;14.85;;;;;;;;;;6246905;28;20265;-79
2023/09/14 03:17:29;;;;;;;;;;;;;;;;;;6235793;28;20054;-78
2023/09/14 03:20:31;;;;;;;21.63;14.82;;;;;;;;;;6249010;28;19918;-79
2023/09/14 03:23:33;;;;;;;24.00;15.73;;;;;;;;;;6246299;28;20349;-78
2023/09/14 03:26:35;;;;;;;20.45;15.25;;;;;;;;;;6245455;28;20650;-78
2023/09/14 03:29:38;;;;;;;26.33;16.20;;;;;;;;;;6246405;28;20045;-79
2023/09/14 03:32:40;;;;;;;23.42;16.13;;;;;;;;;;6250622;28;20060;-79
2023/09/14 03:35:42;;;;;;;26.80;15.80;;;;;;;;;;6247924;28;20136;-78
2023/09/14 03:38:44;;;;;;;22.20;14.95;;;;;;;;;;6243925;28;20119;-79
2023/09/14 03:41:49;;;;;;;25.02;16.42;;;;;;;;;;6250832;28;20064;-78
2023/09/14 03:44:52;;;;;;;26.05;16.83;;;;;;;;;;6238272;28;20148;-79
2023/09/14 03:47:55;;;;;;;23.38;16.60;;;;;;;;;;6244654;28;20335;-79
2023/09/14 03:50:59;;;;;;;20.08;15.07;;;;;;;;;;6245081;28;20061;-78
2023/09/14 03:54:01;;;;;;;24.33;16.70;;;;;;;;;;6248876;28;20117;-78
2023/09/14 03:57:03;;;;;;;18.95;14.75;;;;;;;;;;6246378;28;20057;-78
2023/09/14 04:00:09;;;;;;;23.02;16.20;;;;;;;;;;6248862;28;20045;-79
2023/09/14 04:03:11;;;;;;;22.67;15.45;;;;;;;;;;6246841;28;20317;-78
2023/09/14 04:06:13;;;;;;;23.70;15.80;;;;;;;;;;6250137;28;20061;-79
2023/09/14 04:09:15;;;;;;;20.42;15.27;;;;;;;;;;6235777;28;20052;-79
2023/09/14 04:12:16;;;;;;;24.33;15.75;;;;;;;;;;6246610;28;20061;-78
2023/09/14 04:15:19;;;;;;;25.10;15.57;;;;;;;;;;6247316;28;20276;-79
2023/09/14 04:18:21;;;;;;;21.83;15.95;;;;;;;;;;6247030;28;20237;-79
2023/09/14 04:21:23;;;;;;;22.10;15.43;;;;;;;;;;6245826;28;20101;-78
2023/09/14 04:24:45;;;;;;;22.92;15.27;;;;;;;;;;6237416;28;20076;-78
2023/09/14 04:27:48;;;;;;;20.95;14.68;;;;;;;;;;6233647;28;21007;-78
2023/09/14 04:31:02;;;;;;;21.65;16.17;;;;;;;;;;6233373;28;20053;-80
2023/09/14 04:34:10;;;;;;;25.67;15.93;;;;;;;;;;6246074;28;20057;-79
2023/09/14 04:37:12;;;;;;;22.63;15.25;;;;;;;;;;6244017;28;20053;-77
2023/09/14 04:40:14;;;;;;;20.88;15.93;;;;;;;;;;6245400;28;20359;-79
2023/09/14 04:43:16;;;;;;;21.88;15.48;;;;;;;;;;6248504;28;20081;-79
2023/09/14 04:46:19;;;;;;;25.40;16.52;;;;;;;;;;6246321;28;20050;-79
2023/09/14 04:49:21;;;;;;;24.40;15.85;;;;;;;;;;6242988;28;20079;-78
2023/09/14 04:52:23;;;;;;;21.88;16.20;;;;;;;;;;6246854;28;20052;-77
2023/09/14 04:55:25;;;;;;;20.90;15.73;;;;;;;;;;6246024;28;20038;-77
2023/09/14 04:58:27;;;;;;;21.10;14.88;;;;;;;;;;6245901;28;20045;-77
2023/09/14 05:01:30;;;;;;;19.25;14.88;;;;;;;;;;6246905;28;20054;-77
2023/09/14 05:04:32;;;;;;;21.00;15.20;;;;;;;;;;6242269;28;20057;-77
2023/09/14 05:07:34;;;;;;;20.30;15.30;;;;;;;;;;6244047;28;20038;-77
2023/09/14 05:10:36;;;;;;;20.95;14.93;;;;;;;;;;6243854;28;20061;-77
2023/09/14 05:13:38;;;;;;;27.48;17.15;;;;;;;;;;6245224;28;20087;-79
2023/09/14 05:16:41;;;;;;;24.35;15.90;;;;;;;;;;6247671;28;20201;-77
2023/09/14 05:19:46;;;;;;;26.45;16.23;;;;;;;;;;6245109;28;20060;-77
2023/09/14 05:23:02;;;;;;;22.02;15.48;;;;;;;;;;6242867;28;20115;-77
2023/09/14 05:26:04;;;;;;;22.80;16.85;;;;;;;;;;6244127;28;20100;-76
2023/09/14 05:29:06;;;;;;;24.13;16.23;;;;;;;;;;6243806;28;20057;-77
2023/09/14 05:32:09;;;;;;;24.45;15.43;;;;;;;;;;6244474;28;20049;-77
2023/09/14 05:35:11;;;;;;;26.67;15.82;;;;;;;;;;6243343;28;20529;-79
2023/09/14 05:38:13;;;;;;;21.42;16.13;;;;;;;;;;6246835;28;20356;-77
2023/09/14 05:41:15;;;;;;;23.40;16.42;;;;;;;;;;6245210;28;20053;-77
2023/09/14 05:44:19;;;;;;;19.25;15.27;;;;;;;;;;6246161;28;20049;-77
2023/09/14 05:47:27;;;;;;;23.15;15.40;;;;;;;;;;6243437;28;20105;-77
2023/09/14 05:50:29;;;;;;;20.30;15.13;;;;;;;;;;6243598;28;20057;-77
2023/09/14 05:53:31;;;;;;;23.40;16.20;;;;;;;;;;6248188;28;20280;-78
2023/09/14 05:56:33;;;;;;;21.45;15.85;;;;;;;;;;6249671;28;20057;-76
2023/09/14 05:59:35;;;;;;;20.63;14.98;;;;;;;;;;6251448;28;20041;-77
2023/09/14 06:02:38;;;;;;;21.95;15.35;;;;;;;;;;6248380;28;20060;-77
2023/09/14 06:05:40;;;;;;;24.38;15.88;;;;;;;;;;6251360;28;20072;-76
2023/09/14 06:08:42;;;;;;;24.38;15.75;;;;;;;;;;6246854;28;20053;-77
2023/09/14 06:11:44;;;;;;;21.00;14.75;;;;;;;;;;6252324;28;20065;-76
2023/09/14 06:14:46;;;;;;;22.60;15.80;;;;;;;;;;6249863;28;20061;-77
2023/09/14 06:17:49;;;;;;;21.45;14.70;;;;;;;;;;6251442;28;21026;-76
2023/09/14 06:20:51;;;;;;;19.38;15.05;;;;;;;;;;6249412;28;20061;-77
2023/09/14 06:23:52;;;;;;;20.60;15.40;;;;;;;;;;6246851;28;20245;-77
2023/09/14 06:26:55;;;;;;;20.15;14.45;;;;;;;;;;6250321;28;20355;-77
2023/09/14 06:29:58;;;;;;;23.45;16.02;;;;;;;;;;6247504;28;20057;-77
2023/09/14 06:33:07;;;;;;;21.83;14.65;;;;;;;;;;6245667;28;20058;-77
2023/09/14 06:36:10;;;;;;;21.70;14.15;;;;;;;;;;6247766;28;20113;-77
2023/09/14 06:39:12;;;;;;;21.58;14.07;;;;;;;;;;6247289;28;20050;-77
2023/09/14 06:42:14;;;;;;;22.45;16.13;;;;;;;;;;6246584;28;20057;-76
2023/09/14 06:45:16;;;;;;;18.70;14.70;;;;;;;;;;6248172;28;20064;-76
2023/09/14 06:48:19;;;;;;;16.80;13.80;;;;;;;;;;6247980;28;20409;-77
2023/09/14 06:51:21;;;;;;;17.33;13.02;;;;;;;;;;6246644;28;20050;-77
2023/09/14 06:54:22;;;;;;;20.25;14.27;;;;;;;;;;6247942;28;20356;-77
2023/09/14 06:57:24;;;;;;;16.50;12.13;;;;;;;;;;6234281;28;20121;-77
2023/09/14 07:00:26;;;;;;;17.42;13.18;;;;;;;;;;6248193;28;20104;-79
2023/09/14 07:03:29;;;;;;;18.38;14.25;;;;;;;;;;6246660;28;20057;-76
2023/09/14 07:06:31;;;;;;;16.02;13.02;;;;;;;;;;6246512;28;20272;-77
2023/09/14 07:09:33;;;;;;;19.75;13.10;;;;;;;;;;6245667;28;20123;-77
2023/09/14 07:12:36;;;;;;;20.23;13.57;;;;;;;;;;6245516;28;20053;-77
2023/09/14 07:15:38;;;;;;;17.85;14.05;;;;;;;;;;6245030;28;20065;-77
2023/09/14 07:18:41;;;;;;;20.03;14.73;;;;;;;;;;6247012;28;20061;-77
2023/09/14 07:21:43;;;;;;;19.33;14.23;;;;;;;;;;6247828;28;20064;-76
2023/09/14 07:24:45;;;;;;;16.85;12.68;;;;;;;;;;6240718;28;20344;-76
2023/09/14 07:27:47;;;;;;;21.00;14.18;;;;;;;;;;6248520;28;20057;-77
2023/09/14 07:30:50;;;;;;;18.75;14.75;;;;;;;;;;6246691;28;20053;-77
2023/09/14 07:33:53;;;;;;;18.73;13.88;;;;;;;;;;6250154;28;20049;-76
2023/09/14 07:36:55;;;;;;;19.38;13.63;;;;;;;;;;6244479;28;20045;-77
2023/09/14 07:39:57;;;;;;;18.52;13.82;;;;;;;;;;6250129;28;20124;-77
2023/09/14 07:42:59;;;;;;;17.77;15.07;;;;;;;;;;6247024;28;20434;-77
2023/09/14 07:46:00;;;;;;;18.50;14.00;;;;;;;;;;6249990;28;20062;-77
2023/09/14 07:49:04;;;;;;;17.08;13.75;;;;;;;;;;6247887;28;20049;-76
2023/09/14 07:52:06;;;;;;;17.92;12.70;;;;;;;;;;6245732;28;20061;-78
2023/09/14 07:55:08;;;;;;;13.25;11.27;;;;;;;;;;6247061;28;20045;-77
2023/09/14 07:58:10;;;;;;;16.42;11.70;;;;;;;;;;6246381;28;20069;-76
2023/09/14 08:01:12;;;;;;;18.27;14.45;;;;;;;;;;6247506;28;20060;-77
2023/09/14 08:04:15;;;;;;;20.08;15.90;;;;;;;;;;6244317;28;20069;-77
2023/09/14 08:07:16;;;;;;;;;;;;;;;;;;6245887;28;20052;-78
2023/09/14 08:10:18;;;;;;;28.85;21.20;;;;;;;;;;6225486;28;19925;-77
2023/09/14 08:13:20;;;;;;;27.73;20.67;;;;;;;;;;6246383;28;20068;-77
2023/09/14 08:16:25;;;;;;;27.70;18.48;;;;;;;;;;6246057;28;20054;-78
2023/09/14 08:19:28;;;;;;;25.60;19.42;;;;;;;;;;6246026;28;20065;-77
2023/09/14 08:22:30;;;;;;;;;;;;;;;;;;6250244;28;20051;-77
2023/09/14 08:25:32;;;;;;;21.85;16.10;;;;;;;;;;6246683;28;19963;-77
2023/09/14 08:28:34;;;;;;;18.88;15.48;;;;;;;;;;6245621;28;20100;-77
2023/09/14 08:31:35;;;;;;;24.27;17.48;;;;;;;;;;6247504;28;20053;-77
2023/09/14 08:34:38;;;;;;;19.40;16.23;;;;;;;;;;6247378;28;20081;-76
2023/09/14 08:37:40;;;;;;;;;;;;;;;;;;6247423;28;20049;-78
2023/09/14 08:40:43;;;;;;;19.75;14.65;;;;;;;;;;6246896;28;19932;-77
2023/09/14 08:43:46;;;;;;;16.17;13.55;;;;;;;;;;6245309;28;20096;-78
2023/09/14 08:46:48;;;;;;;19.58;13.15;;;;;;;;;;6247422;28;20048;-77
2023/09/14 08:49:52;;;;;;;15.52;12.73;;;;;;;;;;6246047;28;20238;-77
2023/09/14 08:52:54;;;;;;;17.80;13.57;;;;;;;;;;6246633;28;20053;-77
2023/09/14 08:55:55;;;;;;;17.23;12.95;;;;;;;;;;6245184;28;20053;-77
2023/09/14 08:58:59;;;;;;;15.45;12.45;;;;;;;;;;6247084;28;20301;-79
2023/09/14 09:02:02;;;;;;;16.70;14.07;;;;;;;;;;6244689;28;20049;-76
2023/09/14 09:05:05;;;;;;;17.95;14.57;;;;;;;;;;6243635;28;20257;-75
2023/09/14 09:08:07;;;;;;;17.63;12.85;;;;;;;;;;6246078;28;20109;-74
2023/09/14 09:11:09;;;;;;;22.80;18.85;;;;;;;;;;6244815;28;20125;-74
2023/09/14 09:14:11;;;;;;;27.20;20.60;;;;;;;;;;6246403;28;20359;-74
2023/09/14 09:17:12;;;;;;;24.30;19.23;;;;;;;;;;6245451;28;20260;-74
2023/09/14 09:20:22;;;;;;;26.25;21.75;;;;;;;;;;6248056;28;20053;-77
2023/09/14 09:23:26;;;;;;;28.20;19.77;;;;;;;;;;6244110;28;20053;-78
2023/09/14 09:26:33;;;;;;;24.10;18.10;;;;;;;;;;6243519;28;20060;-77
2023/09/14 09:29:35;;;;;;;21.33;17.90;;;;;;;;;;6245146;28;20061;-76
2023/09/14 09:32:38;;;;;;;15.30;11.70;;;;;;;;;;6246306;28;20072;-77
2023/09/14 09:35:41;;;;;;;13.02;9.10;;;;;;;;;;6241978;28;20048;-77
2023/09/14 09:38:45;;;;;;;10.48;7.15;;;;;;;;;;6246278;28;20053;-76
2023/09/14 09:41:47;;;;;;;9.60;7.40;;;;;;;;;;6244059;28;20042;-75
2023/09/14 09:44:58;;;;;;;12.53;7.70;;;;;;;;;;6243237;28;20107;-76
2023/09/14 09:48:15;;;;;;;9.23;6.78;;;;;;;;;;6220567;28;20057;-79
2023/09/14 09:51:21;;;;;;;8.73;6.75;;;;;;;;;;6215160;28;20065;-77
2023/09/14 09:54:24;;;;;;;6.70;5.40;;;;;;;;;;6240979;28;20076;-76
2023/09/14 09:57:30;;;;;;;9.40;6.32;;;;;;;;;;6240306;28;20049;-76
2023/09/14 10:00:34;;;;;;;11.20;7.20;;;;;;;;;;6242693;28;20108;-76
2023/09/14 10:03:36;;;;;;;8.60;5.47;;;;;;;;;;6237661;28;20373;-75
2023/09/14 10:06:41;;;;;;;8.55;5.80;;;;;;;;;;6225236;28;20077;-77
2023/09/14 10:09:46;;;;;;;10.75;6.70;;;;;;;;;;6240386;28;20065;-79
2023/09/14 10:12:48;;;;;;;8.07;5.95;;;;;;;;;;6241120;28;20089;-76
2023/09/14 10:15:51;;;;;;;8.75;6.22;;;;;;;;;;6240634;28;20250;-76
2023/09/14 10:18:55;;;;;;;6.38;5.05;;;;;;;;;;6244201;28;20045;-76
2023/09/14 10:25:15;;;;;;;6.85;5.53;;;;;;;;;;6244427;28;20050;-76
2023/09/14 10:28:17;;;;;;;6.20;5.05;;;;;;;;;;6243500;28;20099;-78
2023/09/14 10:31:20;;;;;;;7.00;5.03;;;;;;;;;;6245119;28;20042;-76
2023/09/14 10:34:23;;;;;;;7.07;4.88;;;;;;;;;;6242240;28;20096;-76
2023/09/14 10:37:27;;;;;;;7.97;3.95;;;;;;;;;;6241083;28;20691;-76
2023/09/14 10:40:29;;;;;;;5.05;4.22;;;;;;;;;;6248626;28;20083;-83
2023/09/14 10:44:13;;;;;;;6.47;4.40;;;;;;;;;;6239245;28;20053;-81
2023/09/14 10:47:27;;;;;;;5.78;4.78;;;;;;;;;;6245518;28;20300;-82
2023/09/14 10:50:47;;;;;;;5.70;4.60;;;;;;;;;;6237876;28;20069;-80
2023/09/14 10:54:17;;;;;;;5.60;4.72;;;;;;;;;;6209302;28;20046;-82
2023/09/14 10:57:30;;;;;;;6.82;5.22;;;;;;;;;;6245263;28;20052;-82
2023/09/14 11:00:36;;;;;;;5.30;4.55;;;;;;;;;;6246955;28;20353;-83
2023/09/14 11:04:05;;;;;;;5.65;4.60;;;;;;;;;;6224133;28;20278;-79
2023/09/14 11:07:07;;;;;;;7.20;5.20;;;;;;;;;;6219137;28;20121;-80
2023/09/14 11:10:16;;;;;;;6.32;4.80;;;;;;;;;;6223662;28;20046;-86
2023/09/14 11:13:37;;;;;;;7.53;4.88;;;;;;;;;;6208692;28;20242;-81
2023/09/14 11:16:52;;;;;;;6.13;5.32;;;;;;;;;;6218279;28;20249;-79
2023/09/14 11:19:54;;;;;;;11.70;5.90;;;;;;;;;;6222045;28;20060;-80
2023/09/14 11:23:01;;;;;;;6.78;5.65;;;;;;;;;;6221262;28;20069;-82
2023/09/14 11:26:05;;;;;;;171.15;20.67;;;;;;;;;;6206455;28;20064;-80
2023/09/14 11:33:27;;;;;;;9.88;8.18;;;;;;;;;;6217606;28;20050;-80
2023/09/14 11:36:29;;;;;;;;;;;;;;;;;;6213370;28;20069;-80
2023/09/14 11:39:31;;;;;;;12.35;9.30;;;;;;;;;;6224709;28;19976;-83
2023/09/14 11:43:24;;;;;;;8.87;7.87;;;;;;;;;;6224175;28;20070;-83
2023/09/14 11:46:37;;;;;;;10.15;7.25;;;;;;;;;;6222819;28;20551;-90
2023/09/14 11:49:40;;;;;;;10.25;8.07;;;;;;;;;;6202787;28;20061;-88
2023/09/14 11:52:44;;;;;;;;;;;;;;;;;;6221687;28;20245;-86
2023/09/14 11:55:47;;;;;;;12.55;8.52;;;;;;;;;;6221359;28;19936;-82
2023/09/14 11:59:17;;;;;;;10.10;8.40;;;;;;;;;;6221633;28;20065;-81
2023/09/14 12:02:20;;;;;;;10.65;8.00;;;;;;;;;;6212181;28;20078;-81
2023/09/14 12:05:27;;;;;;;9.27;6.82;;;;;;;;;;6218974;28;20111;-82
2023/09/14 12:08:29;;;;;;;11.40;7.80;;;;;;;;;;6213086;28;20098;-81
2023/09/14 12:11:59;;;;;;;10.70;7.82;;;;;;;;;;6218298;28;20129;-81
2023/09/14 12:15:06;;;;;;;11.35;7.95;;;;;;;;;;6217153;28;20060;-81
2023/09/14 12:21:48;;;;;;;11.07;7.80;;;;;;;;;;6212814;28;20355;-81
2023/09/14 12:24:54;;;;;;;9.88;7.47;;;;;;;;;;6219170;28;20133;-81
2023/09/14 12:28:24;;;;;;;10.60;7.50;;;;;;;;;;6216568;28;20054;-82
2023/09/14 12:31:31;;;;;;;9.68;7.55;;;;;;;;;;6211151;28;20050;-82
2023/09/14 12:34:36;;;;;;;11.20;8.63;;;;;;;;;;6222050;28;20054;-81
2023/09/14 12:41:05;;;;;;;10.00;6.97;;;;;;;;;;6145402;28;20071;-81
2023/09/14 12:44:11;;;;;;;7.53;6.63;;;;;;;;;;6217876;28;20042;-81
2023/09/14 12:47:15;;;;;;;9.07;6.32;;;;;;;;;;6217826;28;20057;-80
2023/09/14 12:50:17;;;;;;;11.40;8.40;;;;;;;;;;6220979;28;20049;-80
2023/09/14 12:53:28;;;;;;;12.27;8.68;;;;;;;;;;6220169;28;20082;-82
2023/09/14 12:57:17;;;;;;;13.55;8.60;;;;;;;;;;6221986;28;20305;-81
2023/09/14 13:00:54;;;;;;;9.43;8.05;;;;;;;;;;6114383;28;20056;-81
2023/09/14 13:04:08;;;;;;;10.75;6.40;;;;;;;;;;6116579;29;20091;-80
2023/09/14 13:07:15;;;;;;;6.85;6.13;;;;;;;;;;6122908;29;20052;-83
2023/09/14 13:10:20;;;;;;;6.63;5.65;;;;;;;;;;6120548;29;20111;-85
2023/09/14 13:13:24;;;;;;;7.28;6.55;;;;;;;;;;6121506;28;20052;-84
2023/09/14 13:16:27;;;;;;;6.40;5.80;;;;;;;;;;6127333;29;20224;-84
2023/09/14 13:19:32;;;;;;;6.30;5.60;;;;;;;;;;6124940;29;20060;-84
2023/09/14 13:22:53;;;;;;;9.20;6.25;;;;;;;;;;6122522;29;20127;-84
2023/09/14 13:25:55;;;;;;;8.45;6.07;;;;;;;;;;6117548;28;20064;-85
2023/09/14 13:28:57;;;;;;;7.07;5.35;;;;;;;;;;6124411;29;20056;-85
2023/09/14 13:31:58;;;;;;;8.10;6.80;;;;;;;;;;6129045;29;20239;-87
2023/09/14 13:35:04;;;;;;;6.13;5.53;;;;;;;;;;6207057;28;20054;-84
2023/09/14 13:38:08;;;;;;;6.03;5.32;;;;;;;;;;6223182;28;20094;-85
2023/09/14 13:41:13;;;;;;;5.20;4.75;;;;;;;;;;6220726;28;20321;-85
2023/09/14 13:44:14;;;;;;;5.85;4.50;;;;;;;;;;6223242;28;20129;-84
2023/09/14 13:47:17;;;;;;;5.60;4.80;;;;;;;;;;6225051;28;20061;-85
2023/09/14 13:50:31;;;;;;;7.47;4.53;;;;;;;;;;6223628;28;20120;-84
2023/09/14 13:53:32;;;;;;;5.57;4.90;;;;;;;;;;6219035;28;20054;-85
2023/09/14 13:56:34;;;;;;;5.55;5.05;;;;;;;;;;6221340;28;20052;-84
2023/09/14 13:59:36;;;;;;;6.72;4.80;;;;;;;;;;6221613;28;20360;-85
2023/09/14 14:02:40;;;;;;;5.65;5.03;;;;;;;;;;6222102;28;20066;-84
2023/09/14 14:05:44;;;;;;;6.10;5.50;;;;;;;;;;6220562;28;20049;-84
2023/09/14 14:08:54;;;;;;;6.47;5.10;;;;;;;;;;6219761;28;20042;-84
2023/09/14 14:12:00;;;;;;;6.35;5.80;;;;;;;;;;6217461;28;20298;-83
2023/09/14 14:15:03;;;;;;;5.90;5.30;;;;;;;;;;6206624;28;20092;-84
2023/09/14 14:21:35;;;;;;;6.03;3.80;;;;;;;;;;6223127;28;20046;-84
2023/09/14 14:24:39;;;;;;;5.00;4.50;;;;;;;;;;6227481;28;20052;-82
2023/09/14 14:27:50;;;;;;;6.70;4.30;;;;;;;;;;6225812;28;20049;-84
2023/09/14 14:30:52;;;;;;;4.65;4.15;;;;;;;;;;6224100;28;20385;-83
2023/09/14 14:33:55;;;;;;;6.05;5.05;;;;;;;;;;6224297;28;20338;-84
2023/09/14 14:37:09;;;;;;;8.88;5.18;;;;;;;;;;6226368;28;20054;-84
2023/09/14 14:40:14;;;;;;;3.97;3.58;;;;;;;;;;6225799;28;20058;-84
2023/09/14 14:43:19;;;;;;;5.57;4.95;;;;;;;;;;6211293;28;20061;-83
2023/09/14 14:46:51;;;;;;;4.20;3.80;;;;;;;;;;6225255;28;20064;-85
2023/09/14 14:50:03;;;;;;;3.97;3.22;;;;;;;;;;6203320;28;20077;-83
2023/09/14 14:53:10;;;;;;;4.18;3.60;;;;;;;;;;6209564;28;20289;-83
2023/09/14 14:56:15;;;;;;;5.15;4.65;;;;;;;;;;6223181;28;20161;-83
2023/09/14 14:59:20;;;;;;;7.35;4.10;;;;;;;;;;6223677;28;20148;-83
2023/09/14 15:02:22;;;;;;;4.18;3.08;;;;;;;;;;6216364;28;20057;-83
2023/09/14 15:05:27;;;;;;;3.75;3.05;;;;;;;;;;6221493;28;20058;-81
2023/09/14 15:08:42;;;;;;;3.13;2.83;;;;;;;;;;6222083;28;20058;-83
2023/09/14 15:11:58;;;;;;;4.38;3.17;;;;;;;;;;6210637;28;20095;-81
2023/09/14 15:15:02;;;;;;;4.20;2.65;;;;;;;;;;6223018;28;20070;-81
2023/09/14 15:18:04;;;;;;;3.85;2.78;;;;;;;;;;6223977;28;20052;-82
2023/09/14 15:21:07;;;;;;;2.85;2.33;;;;;;;;;;6221921;28;20046;-81
2023/09/14 15:24:22;;;;;;;4.32;2.65;;;;;;;;;;6220401;28;20057;-81
2023/09/14 15:27:23;;;;;;;4.35;2.67;;;;;;;;;;6221617;28;20046;-82
2023/09/14 15:30:26;;;;;;;5.25;3.17;;;;;;;;;;6224960;28;20045;-82
2023/09/14 15:34:03;;;;;;;;;;;;;;;;;;6220958;28;20057;-81
2023/09/14 15:37:06;;;;;;;2.90;2.60;;;;;;;;;;6211155;28;19928;-83
2023/09/14 15:40:18;;;;;;;3.60;3.10;;;;;;;;;;6224058;28;20058;-82
2023/09/14 15:43:48;;;;;;;6.70;3.08;;;;;;;;;;6202505;28;20382;-82
2023/09/14 15:47:02;;;;;;;4.35;2.92;;;;;;;;;;6213807;28;20054;-81
2023/09/14 15:54:03;;;;;;;3.25;2.70;;;;;;;;;;6209272;28;20081;-82
2023/09/14 15:57:27;;;;;;;5.13;3.10;;;;;;;;;;6200744;28;20144;-81
2023/09/14 16:00:47;;;;;;;3.40;3.10;;;;;;;;;;6222928;28;20117;-81
2023/09/14 16:07:31;;;;;;;5.18;3.20;;;;;;;;;;6180166;28;20053;-80
2023/09/14 16:10:59;;;;;;;2.95;2.63;;;;;;;;;;6223804;28;20050;-81
2023/09/14 16:17:58;;;;;;;2.90;2.60;;;;;;;;;;6179196;28;20126;-82
2023/09/14 16:21:05;;;;;;;4.40;3.42;;;;;;;;;;6217902;28;20441;-81
2023/09/14 16:24:08;;;;;;;3.05;2.75;;;;;;;;;;6209301;28;20054;-81
2023/09/14 16:27:19;;;;;;;3.97;2.60;;;;;;;;;;6216684;28;20045;-81
2023/09/14 16:30:23;;;;;;;2.53;2.25;;;;;;;;;;6221181;28;20266;-82
2023/09/14 16:33:26;;;;;;;2.80;2.50;;;;;;;;;;6214439;28;20444;-81
2023/09/14 16:36:31;;;;;;;3.20;2.55;;;;;;;;;;6217084;28;20358;-82
2023/09/14 16:39:33;;;;;;;5.38;2.83;;;;;;;;;;6210929;28;20073;-82
2023/09/14 16:42:35;;;;;;;6.90;2.63;;;;;;;;;;6197739;28;20085;-81
2023/09/14 16:45:59;;;;;;;4.68;3.10;;;;;;;;;;6182990;28;20061;-81
2023/09/14 16:49:53;;;;;;;4.65;2.75;;;;;;;;;;6168873;28;20506;-81
2023/09/14 16:56:34;;;;;;;3.28;2.60;;;;;;;;;;6120718;29;20062;-81
2023/09/14 16:59:46;;;;;;;5.20;2.40;;;;;;;;;;6124200;29;20054;-82
2023/09/14 17:02:53;;;;;;;;;;;;;;;;;;6120943;29;20178;-81
2023/09/14 17:06:06;;;;;;;3.15;2.55;;;;;;;;;;6126804;29;19918;-82
2023/09/14 17:32:17;;;;;;;4.75;3.38;;;;;;;;;;6020557;29;20047;-81
2023/09/14 17:35:28;;;;;;;4.03;3.20;;;;;;;;;;6108601;28;20069;-81
2023/09/14 17:38:31;;;;;;;6.90;3.75;;;;;;;;;;6199304;28;20058;-82
2023/09/14 17:41:39;;;;;;;6.03;4.38;;;;;;;;;;6199352;28;20054;-81
2023/09/14 17:44:41;;;;;;;4.93;4.07;;;;;;;;;;6198726;28;20054;-81
2023/09/14 17:47:46;;;;;;;6.47;3.50;;;;;;;;;;6199730;28;20046;-80
2023/09/14 17:51:17;;;;;;;4.25;3.70;;;;;;;;;;6199471;28;20058;-80
2023/09/14 17:54:21;;;;;;;5.32;4.15;;;;;;;;;;6187610;28;20074;-80
2023/09/14 17:57:23;;;;;;;6.22;4.28;;;;;;;;;;6189438;28;20122;-80
2023/09/14 18:00:25;;;;;;;5.32;4.32;;;;;;;;;;6201090;28;20254;-82
2023/09/14 18:03:28;;;;;;;6.00;4.40;;;;;;;;;;6199647;28;20118;-81
2023/09/14 18:06:33;;;;;;;7.50;4.57;;;;;;;;;;6199412;28;20334;-80
2023/09/14 18:09:36;;;;;;;7.60;4.80;;;;;;;;;;6200935;28;20054;-81
2023/09/14 18:12:38;;;;;;;;;;;;;;;;;;6200627;28;20165;-81
2023/09/14 18:15:47;;;;;;;6.80;5.25;;;;;;;;;;6163144;28;19985;-82
2023/09/14 18:18:49;;;;;;;9.13;4.70;;;;;;;;;;6201417;28;20054;-79
2023/09/14 18:21:51;;;;;;;6.53;4.97;;;;;;;;;;6204472;28;20062;-81
2023/09/14 18:25:31;;;;;;;8.95;5.45;;;;;;;;;;6186567;28;20246;-83
2023/09/14 18:29:25;;;;;;;11.70;5.72;;;;;;;;;;6196558;28;20058;-84
2023/09/14 18:32:40;;;;;;;;;;;;;;;;;;;;;
2023/09/14 18:35:55;;;;;;;8.30;5.45;;;;;;;;;;6184681;28;22566;-81
2023/09/14 18:39:21;;;;;;;7.57;5.70;;;;;;;;;;6211798;28;20117;-81
2023/09/14 18:46:58;;;;;;;;;;;;;;;;;;;;;
2023/09/14 19:14:07;;;;;;;8.07;6.00;;;;;;;;;;5971400;29;20070;-81
2023/09/14 19:32:56;;;;;;;9.55;6.00;;;;;;;;;;6009607;29;20173;-81
2023/09/14 19:40:46;;;;;;;8.55;6.15;;;;;;;;;;5972212;29;20110;-81
2023/09/14 19:43:48;;;;;;;8.88;5.75;;;;;;;;;;5977157;29;20109;-80
2023/09/14 19:50:55;;;;;;;11.43;6.38;;;;;;;;;;5966704;29;20038;-80
2023/09/14 20:05:37;;;;;;;8.43;6.60;;;;;;;;;;6120366;28;20082;-80
2023/09/14 20:13:03;;;;;;;10.43;6.07;;;;;;;;;;6191271;28;20050;-80
2023/09/14 20:16:32;;;;;;;10.00;6.32;;;;;;;;;;6197156;28;20303;-81
2023/09/14 20:19:52;;;;;;;8.40;6.45;;;;;;;;;;6172305;28;20055;-80
2023/09/14 20:22:54;;;;;;;9.32;6.97;;;;;;;;;;6194127;28;20066;-81
2023/09/14 20:26:45;;;;;;;;;;;;;;;;;;;;;
2023/09/14 20:29:56;;;;;;;8.68;6.57;;;;;;;;;;6066325;28;20047;-79